sensor_id;sensor_type;location;lat;lon;timestamp;P1;durP1;ratioP1;P2;durP2;ratioP2
19084;SDS011;9675;51.538;6.728;2024-01-30T00:00:24;10.93;;;4.67;;
19084;SDS011;9675;51.538;6.728;2024-01-30T00:02:52;9.67;;;4.70;;
19084;SDS011;9675;51.538;6.728;2024-01-30T00:05:19;9.23;;;4.73;;
19084;SDS011;9675;51.538;6.728;2024-01-30T00:07:47;11.87;;;5.67;;
19084;SDS011;9675;51.538;6.728;2024-01-30T00:10:14;8.37;;;4.77;;
19084;SDS011;9675;51.538;6.728;2024-01-30T00:12:41;9.90;;;4.93;;
19084;SDS011;9675;51.538;6.728;2024-01-30T00:15:08;11.30;;;5.73;;
19084;SDS011;9675;51.538;6.728;2024-01-30T00:17:35;14.13;;;5.87;;
19084;SDS011;9675;51.538;6.728;2024-01-30T00:20:04;12.93;;;5.50;;
19084;SDS011;9675;51.538;6.728;2024-01-30T00:22:34;9.10;;;5.10;;
19084;SDS011;9675;51.538;6.728;2024-01-30T00:25:01;8.57;;;4.73;;
19084;SDS011;9675;51.538;6.728;2024-01-30T00:27:28;10.87;;;4.80;;
19084;SDS011;9675;51.538;6.728;2024-01-30T00:29:55;10.87;;;5.00;;
19084;SDS011;9675;51.538;6.728;2024-01-30T00:32:22;8.93;;;4.80;;
19084;SDS011;9675;51.538;6.728;2024-01-30T00:34:49;11.93;;;4.80;;
19084;SDS011;9675;51.538;6.728;2024-01-30T00:37:17;16.57;;;4.87;;
19084;SDS011;9675;51.538;6.728;2024-01-30T00:39:44;16.70;;;6.07;;
19084;SDS011;9675;51.538;6.728;2024-01-30T00:42:11;10.10;;;5.13;;
19084;SDS011;9675;51.538;6.728;2024-01-30T00:44:38;19.60;;;5.70;;
19084;SDS011;9675;51.538;6.728;2024-01-30T00:47:05;15.93;;;6.90;;
19084;SDS011;9675;51.538;6.728;2024-01-30T00:49:32;16.73;;;6.07;;
19084;SDS011;9675;51.538;6.728;2024-01-30T00:51:59;10.53;;;5.80;;
19084;SDS011;9675;51.538;6.728;2024-01-30T00:54:28;13.70;;;5.37;;
19084;SDS011;9675;51.538;6.728;2024-01-30T00:56:55;13.50;;;5.67;;
19084;SDS011;9675;51.538;6.728;2024-01-30T00:59:22;13.27;;;5.63;;
19084;SDS011;9675;51.538;6.728;2024-01-30T01:01:50;12.17;;;5.70;;
19084;SDS011;9675;51.538;6.728;2024-01-30T01:04:17;14.17;;;5.80;;
19084;SDS011;9675;51.538;6.728;2024-01-30T01:06:44;12.60;;;6.13;;
19084;SDS011;9675;51.538;6.728;2024-01-30T01:09:11;11.60;;;4.70;;
19084;SDS011;9675;51.538;6.728;2024-01-30T01:11:39;11.30;;;5.17;;
19084;SDS011;9675;51.538;6.728;2024-01-30T01:14:06;12.23;;;6.03;;
19084;SDS011;9675;51.538;6.728;2024-01-30T01:16:33;12.13;;;5.53;;
19084;SDS011;9675;51.538;6.728;2024-01-30T01:19:00;15.63;;;5.37;;
19084;SDS011;9675;51.538;6.728;2024-01-30T01:21:28;15.77;;;5.13;;
19084;SDS011;9675;51.538;6.728;2024-01-30T01:23:55;10.20;;;4.47;;
19084;SDS011;9675;51.538;6.728;2024-01-30T01:26:22;8.93;;;4.50;;
19084;SDS011;9675;51.538;6.728;2024-01-30T01:28:50;7.70;;;4.83;;
19084;SDS011;9675;51.538;6.728;2024-01-30T01:31:17;17.33;;;5.53;;
19084;SDS011;9675;51.538;6.728;2024-01-30T01:33:47;11.47;;;5.10;;
19084;SDS011;9675;51.538;6.728;2024-01-30T01:36:14;11.53;;;5.33;;
19084;SDS011;9675;51.538;6.728;2024-01-30T01:38:41;9.07;;;5.00;;
19084;SDS011;9675;51.538;6.728;2024-01-30T01:41:08;10.07;;;5.33;;
19084;SDS011;9675;51.538;6.728;2024-01-30T01:43:35;9.83;;;5.57;;
19084;SDS011;9675;51.538;6.728;2024-01-30T01:46:04;11.33;;;5.63;;
19084;SDS011;9675;51.538;6.728;2024-01-30T01:48:32;11.87;;;5.30;;
19084;SDS011;9675;51.538;6.728;2024-01-30T01:51:01;11.30;;;5.10;;
19084;SDS011;9675;51.538;6.728;2024-01-30T01:53:29;12.20;;;5.20;;
19084;SDS011;9675;51.538;6.728;2024-01-30T01:55:56;14.00;;;5.90;;
19084;SDS011;9675;51.538;6.728;2024-01-30T01:58:23;12.87;;;5.23;;
19084;SDS011;9675;51.538;6.728;2024-01-30T02:00:56;11.47;;;4.87;;
19084;SDS011;9675;51.538;6.728;2024-01-30T02:03:26;14.50;;;5.13;;
19084;SDS011;9675;51.538;6.728;2024-01-30T02:05:53;14.20;;;5.03;;
19084;SDS011;9675;51.538;6.728;2024-01-30T02:08:22;10.20;;;4.93;;
19084;SDS011;9675;51.538;6.728;2024-01-30T02:10:50;6.67;;;4.60;;
19084;SDS011;9675;51.538;6.728;2024-01-30T02:13:17;15.17;;;5.77;;
19084;SDS011;9675;51.538;6.728;2024-01-30T02:15:48;14.73;;;6.60;;
19084;SDS011;9675;51.538;6.728;2024-01-30T02:18:16;11.93;;;6.00;;
19084;SDS011;9675;51.538;6.728;2024-01-30T02:20:44;11.53;;;5.53;;
19084;SDS011;9675;51.538;6.728;2024-01-30T02:23:14;12.63;;;5.30;;
19084;SDS011;9675;51.538;6.728;2024-01-30T02:25:42;17.47;;;5.90;;
19084;SDS011;9675;51.538;6.728;2024-01-30T02:28:10;12.03;;;5.40;;
19084;SDS011;9675;51.538;6.728;2024-01-30T02:30:38;11.73;;;4.57;;
19084;SDS011;9675;51.538;6.728;2024-01-30T02:33:05;11.43;;;4.50;;
19084;SDS011;9675;51.538;6.728;2024-01-30T02:35:32;11.20;;;4.53;;
19084;SDS011;9675;51.538;6.728;2024-01-30T02:38:00;13.13;;;5.13;;
19084;SDS011;9675;51.538;6.728;2024-01-30T02:40:28;18.27;;;5.70;;
19084;SDS011;9675;51.538;6.728;2024-01-30T02:42:55;14.03;;;4.83;;
19084;SDS011;9675;51.538;6.728;2024-01-30T02:45:24;8.80;;;5.23;;
19084;SDS011;9675;51.538;6.728;2024-01-30T02:47:52;13.63;;;4.80;;
19084;SDS011;9675;51.538;6.728;2024-01-30T02:50:19;13.07;;;5.27;;
19084;SDS011;9675;51.538;6.728;2024-01-30T02:52:46;12.60;;;4.80;;
19084;SDS011;9675;51.538;6.728;2024-01-30T02:55:13;12.57;;;4.53;;
19084;SDS011;9675;51.538;6.728;2024-01-30T02:57:43;9.73;;;4.60;;
19084;SDS011;9675;51.538;6.728;2024-01-30T03:00:11;9.00;;;4.17;;
19084;SDS011;9675;51.538;6.728;2024-01-30T03:02:39;11.40;;;4.37;;
19084;SDS011;9675;51.538;6.728;2024-01-30T03:05:07;10.57;;;4.53;;
19084;SDS011;9675;51.538;6.728;2024-01-30T03:07:34;10.63;;;4.60;;
19084;SDS011;9675;51.538;6.728;2024-01-30T03:10:01;12.03;;;4.97;;
19084;SDS011;9675;51.538;6.728;2024-01-30T03:12:31;10.90;;;5.03;;
19084;SDS011;9675;51.538;6.728;2024-01-30T03:14:59;11.47;;;4.80;;
19084;SDS011;9675;51.538;6.728;2024-01-30T03:17:26;11.90;;;4.50;;
19084;SDS011;9675;51.538;6.728;2024-01-30T03:19:53;10.33;;;4.63;;
19084;SDS011;9675;51.538;6.728;2024-01-30T03:22:20;9.77;;;4.70;;
19084;SDS011;9675;51.538;6.728;2024-01-30T03:24:47;11.47;;;4.80;;
19084;SDS011;9675;51.538;6.728;2024-01-30T03:27:14;9.30;;;4.40;;
19084;SDS011;9675;51.538;6.728;2024-01-30T03:29:41;9.33;;;4.97;;
19084;SDS011;9675;51.538;6.728;2024-01-30T03:32:10;8.87;;;4.10;;
19084;SDS011;9675;51.538;6.728;2024-01-30T03:34:37;10.63;;;4.17;;
19084;SDS011;9675;51.538;6.728;2024-01-30T03:37:04;9.93;;;4.30;;
19084;SDS011;9675;51.538;6.728;2024-01-30T03:39:31;11.23;;;4.83;;
19084;SDS011;9675;51.538;6.728;2024-01-30T03:41:58;11.27;;;4.00;;
19084;SDS011;9675;51.538;6.728;2024-01-30T03:44:25;10.80;;;4.70;;
19084;SDS011;9675;51.538;6.728;2024-01-30T03:46:52;9.67;;;4.20;;
19084;SDS011;9675;51.538;6.728;2024-01-30T03:49:20;8.97;;;4.40;;
19084;SDS011;9675;51.538;6.728;2024-01-30T03:51:47;9.77;;;5.00;;
19084;SDS011;9675;51.538;6.728;2024-01-30T03:54:14;11.80;;;4.97;;
19084;SDS011;9675;51.538;6.728;2024-01-30T03:56:42;7.83;;;4.30;;
19084;SDS011;9675;51.538;6.728;2024-01-30T03:59:09;14.27;;;4.47;;
19084;SDS011;9675;51.538;6.728;2024-01-30T04:01:36;10.17;;;4.57;;
19084;SDS011;9675;51.538;6.728;2024-01-30T04:04:03;8.63;;;4.73;;
19084;SDS011;9675;51.538;6.728;2024-01-30T04:06:32;12.50;;;5.30;;
19084;SDS011;9675;51.538;6.728;2024-01-30T04:08:59;13.57;;;5.47;;
19084;SDS011;9675;51.538;6.728;2024-01-30T04:11:26;11.17;;;4.77;;
19084;SDS011;9675;51.538;6.728;2024-01-30T04:13:53;12.67;;;5.20;;
19084;SDS011;9675;51.538;6.728;2024-01-30T04:16:20;12.47;;;5.10;;
19084;SDS011;9675;51.538;6.728;2024-01-30T04:18:47;12.23;;;5.20;;
19084;SDS011;9675;51.538;6.728;2024-01-30T04:21:14;9.37;;;4.70;;
19084;SDS011;9675;51.538;6.728;2024-01-30T04:23:42;9.03;;;3.80;;
19084;SDS011;9675;51.538;6.728;2024-01-30T04:26:09;9.10;;;3.93;;
19084;SDS011;9675;51.538;6.728;2024-01-30T04:28:36;9.03;;;4.60;;
19084;SDS011;9675;51.538;6.728;2024-01-30T04:31:03;11.10;;;5.27;;
19084;SDS011;9675;51.538;6.728;2024-01-30T04:33:30;9.07;;;4.43;;
19084;SDS011;9675;51.538;6.728;2024-01-30T04:35:57;8.43;;;3.97;;
19084;SDS011;9675;51.538;6.728;2024-01-30T04:38:24;8.37;;;4.67;;
19084;SDS011;9675;51.538;6.728;2024-01-30T04:40:53;9.37;;;4.73;;
19084;SDS011;9675;51.538;6.728;2024-01-30T04:43:20;11.43;;;4.70;;
19084;SDS011;9675;51.538;6.728;2024-01-30T04:45:47;10.37;;;4.07;;
19084;SDS011;9675;51.538;6.728;2024-01-30T04:48:15;12.10;;;4.97;;
19084;SDS011;9675;51.538;6.728;2024-01-30T04:50:42;12.40;;;4.77;;
19084;SDS011;9675;51.538;6.728;2024-01-30T04:53:09;9.00;;;4.90;;
19084;SDS011;9675;51.538;6.728;2024-01-30T04:55:36;9.23;;;4.73;;
19084;SDS011;9675;51.538;6.728;2024-01-30T04:58:05;15.40;;;5.47;;
19084;SDS011;9675;51.538;6.728;2024-01-30T05:00:32;14.17;;;5.17;;
19084;SDS011;9675;51.538;6.728;2024-01-30T05:02:59;15.57;;;5.27;;
19084;SDS011;9675;51.538;6.728;2024-01-30T05:05:26;10.43;;;5.00;;
19084;SDS011;9675;51.538;6.728;2024-01-30T05:07:53;11.40;;;5.00;;
19084;SDS011;9675;51.538;6.728;2024-01-30T05:10:20;13.37;;;5.43;;
19084;SDS011;9675;51.538;6.728;2024-01-30T05:12:47;10.13;;;5.30;;
19084;SDS011;9675;51.538;6.728;2024-01-30T05:15:15;9.30;;;4.87;;
19084;SDS011;9675;51.538;6.728;2024-01-30T05:17:42;11.37;;;4.77;;
19084;SDS011;9675;51.538;6.728;2024-01-30T05:20:10;8.03;;;4.73;;
19084;SDS011;9675;51.538;6.728;2024-01-30T05:22:38;9.90;;;4.47;;
19084;SDS011;9675;51.538;6.728;2024-01-30T05:25:09;10.30;;;4.67;;
19084;SDS011;9675;51.538;6.728;2024-01-30T05:27:37;10.70;;;4.57;;
19084;SDS011;9675;51.538;6.728;2024-01-30T05:30:04;12.77;;;5.03;;
19084;SDS011;9675;51.538;6.728;2024-01-30T05:32:35;10.43;;;5.33;;
19084;SDS011;9675;51.538;6.728;2024-01-30T05:35:02;11.70;;;4.77;;
19084;SDS011;9675;51.538;6.728;2024-01-30T05:37:30;17.97;;;5.10;;
19084;SDS011;9675;51.538;6.728;2024-01-30T05:39:57;8.87;;;5.00;;
19084;SDS011;9675;51.538;6.728;2024-01-30T05:42:24;13.57;;;4.87;;
19084;SDS011;9675;51.538;6.728;2024-01-30T05:44:53;8.63;;;4.50;;
19084;SDS011;9675;51.538;6.728;2024-01-30T05:47:20;11.93;;;5.13;;
19084;SDS011;9675;51.538;6.728;2024-01-30T05:49:48;8.73;;;5.07;;
19084;SDS011;9675;51.538;6.728;2024-01-30T05:52:15;16.47;;;8.37;;
19084;SDS011;9675;51.538;6.728;2024-01-30T05:54:44;17.80;;;8.37;;
19084;SDS011;9675;51.538;6.728;2024-01-30T05:57:11;8.17;;;4.30;;
19084;SDS011;9675;51.538;6.728;2024-01-30T05:59:38;10.17;;;4.40;;
19084;SDS011;9675;51.538;6.728;2024-01-30T06:02:05;10.97;;;5.37;;
19084;SDS011;9675;51.538;6.728;2024-01-30T06:04:32;12.90;;;5.53;;
19084;SDS011;9675;51.538;6.728;2024-01-30T06:07:00;11.13;;;4.03;;
19084;SDS011;9675;51.538;6.728;2024-01-30T06:09:27;13.07;;;5.10;;
19084;SDS011;9675;51.538;6.728;2024-01-30T06:11:55;10.10;;;4.17;;
19084;SDS011;9675;51.538;6.728;2024-01-30T06:14:22;10.17;;;4.30;;
19084;SDS011;9675;51.538;6.728;2024-01-30T06:16:49;9.27;;;4.30;;
19084;SDS011;9675;51.538;6.728;2024-01-30T06:19:16;11.70;;;4.10;;
19084;SDS011;9675;51.538;6.728;2024-01-30T06:21:43;9.50;;;4.70;;
19084;SDS011;9675;51.538;6.728;2024-01-30T06:24:12;6.80;;;4.30;;
19084;SDS011;9675;51.538;6.728;2024-01-30T06:26:39;9.27;;;4.27;;
19084;SDS011;9675;51.538;6.728;2024-01-30T06:29:06;9.00;;;4.67;;
19084;SDS011;9675;51.538;6.728;2024-01-30T06:31:39;10.67;;;4.73;;
19084;SDS011;9675;51.538;6.728;2024-01-30T06:34:07;9.07;;;4.90;;
19084;SDS011;9675;51.538;6.728;2024-01-30T06:36:34;12.20;;;5.00;;
19084;SDS011;9675;51.538;6.728;2024-01-30T06:39:01;12.10;;;4.63;;
19084;SDS011;9675;51.538;6.728;2024-01-30T06:41:30;8.87;;;4.63;;
19084;SDS011;9675;51.538;6.728;2024-01-30T06:43:57;8.90;;;4.03;;
19084;SDS011;9675;51.538;6.728;2024-01-30T06:46:24;15.07;;;5.27;;
19084;SDS011;9675;51.538;6.728;2024-01-30T06:48:52;9.47;;;4.67;;
19084;SDS011;9675;51.538;6.728;2024-01-30T06:51:19;13.57;;;4.83;;
19084;SDS011;9675;51.538;6.728;2024-01-30T06:53:46;11.10;;;4.30;;
19084;SDS011;9675;51.538;6.728;2024-01-30T06:56:13;11.53;;;4.30;;
19084;SDS011;9675;51.538;6.728;2024-01-30T06:58:43;7.37;;;4.00;;
19084;SDS011;9675;51.538;6.728;2024-01-30T07:01:10;8.77;;;4.10;;
19084;SDS011;9675;51.538;6.728;2024-01-30T07:03:37;11.33;;;4.47;;
19084;SDS011;9675;51.538;6.728;2024-01-30T07:06:04;17.77;;;4.77;;
19084;SDS011;9675;51.538;6.728;2024-01-30T07:08:31;8.27;;;4.37;;
19084;SDS011;9675;51.538;6.728;2024-01-30T07:10:58;11.60;;;4.60;;
19084;SDS011;9675;51.538;6.728;2024-01-30T07:13:25;11.70;;;4.33;;
19084;SDS011;9675;51.538;6.728;2024-01-30T07:15:55;8.40;;;3.97;;
19084;SDS011;9675;51.538;6.728;2024-01-30T07:18:22;10.87;;;4.37;;
19084;SDS011;9675;51.538;6.728;2024-01-30T07:20:49;9.63;;;5.83;;
19084;SDS011;9675;51.538;6.728;2024-01-30T07:23:16;8.47;;;4.97;;
19084;SDS011;9675;51.538;6.728;2024-01-30T07:25:43;8.77;;;4.50;;
19084;SDS011;9675;51.538;6.728;2024-01-30T07:28:11;11.90;;;5.17;;
19084;SDS011;9675;51.538;6.728;2024-01-30T07:30:38;13.10;;;5.37;;
19084;SDS011;9675;51.538;6.728;2024-01-30T07:33:07;10.83;;;4.60;;
19084;SDS011;9675;51.538;6.728;2024-01-30T07:35:34;12.33;;;5.17;;
19084;SDS011;9675;51.538;6.728;2024-01-30T07:38:03;9.30;;;4.70;;
19084;SDS011;9675;51.538;6.728;2024-01-30T07:40:30;10.10;;;5.10;;
19084;SDS011;9675;51.538;6.728;2024-01-30T07:42:58;9.63;;;4.60;;
19084;SDS011;9675;51.538;6.728;2024-01-30T07:45:25;13.57;;;4.80;;
19084;SDS011;9675;51.538;6.728;2024-01-30T07:47:57;8.37;;;4.57;;
19084;SDS011;9675;51.538;6.728;2024-01-30T07:50:27;11.00;;;4.97;;
19084;SDS011;9675;51.538;6.728;2024-01-30T07:52:55;11.97;;;4.70;;
19084;SDS011;9675;51.538;6.728;2024-01-30T07:55:23;10.67;;;4.90;;
19084;SDS011;9675;51.538;6.728;2024-01-30T07:57:52;11.60;;;4.83;;
19084;SDS011;9675;51.538;6.728;2024-01-30T08:00:20;8.27;;;4.60;;
19084;SDS011;9675;51.538;6.728;2024-01-30T08:02:48;10.80;;;5.97;;
19084;SDS011;9675;51.538;6.728;2024-01-30T08:05:15;8.63;;;4.60;;
19084;SDS011;9675;51.538;6.728;2024-01-30T08:07:43;10.67;;;5.20;;
19084;SDS011;9675;51.538;6.728;2024-01-30T08:10:11;12.90;;;4.83;;
19084;SDS011;9675;51.538;6.728;2024-01-30T08:12:39;9.53;;;4.80;;
19084;SDS011;9675;51.538;6.728;2024-01-30T08:15:06;10.47;;;4.60;;
19084;SDS011;9675;51.538;6.728;2024-01-30T08:17:34;9.00;;;5.10;;
19084;SDS011;9675;51.538;6.728;2024-01-30T08:20:01;7.20;;;4.20;;
19084;SDS011;9675;51.538;6.728;2024-01-30T08:22:29;8.40;;;4.63;;
19084;SDS011;9675;51.538;6.728;2024-01-30T08:24:58;11.27;;;5.43;;
19084;SDS011;9675;51.538;6.728;2024-01-30T08:27:25;11.73;;;4.57;;
19084;SDS011;9675;51.538;6.728;2024-01-30T08:29:52;12.73;;;4.30;;
19084;SDS011;9675;51.538;6.728;2024-01-30T08:32:19;9.97;;;4.90;;
19084;SDS011;9675;51.538;6.728;2024-01-30T08:34:46;8.33;;;5.27;;
19084;SDS011;9675;51.538;6.728;2024-01-30T08:37:13;12.93;;;5.03;;
19084;SDS011;9675;51.538;6.728;2024-01-30T08:39:41;10.57;;;4.93;;
19084;SDS011;9675;51.538;6.728;2024-01-30T08:42:10;18.60;;;5.30;;
19084;SDS011;9675;51.538;6.728;2024-01-30T08:44:37;10.87;;;5.03;;
19084;SDS011;9675;51.538;6.728;2024-01-30T08:47:04;11.33;;;4.63;;
19084;SDS011;9675;51.538;6.728;2024-01-30T08:49:32;9.77;;;5.50;;
19084;SDS011;9675;51.538;6.728;2024-01-30T08:51:59;10.10;;;5.60;;
19084;SDS011;9675;51.538;6.728;2024-01-30T08:54:26;13.07;;;5.80;;
19084;SDS011;9675;51.538;6.728;2024-01-30T08:56:53;16.67;;;5.37;;
19084;SDS011;9675;51.538;6.728;2024-01-30T08:59:22;12.90;;;5.77;;
19084;SDS011;9675;51.538;6.728;2024-01-30T09:01:49;15.37;;;6.20;;
19084;SDS011;9675;51.538;6.728;2024-01-30T09:04:18;13.03;;;5.70;;
19084;SDS011;9675;51.538;6.728;2024-01-30T09:06:45;14.27;;;6.30;;
19084;SDS011;9675;51.538;6.728;2024-01-30T09:09:12;16.87;;;5.90;;
19084;SDS011;9675;51.538;6.728;2024-01-30T09:11:40;14.80;;;5.50;;
19084;SDS011;9675;51.538;6.728;2024-01-30T09:14:07;11.93;;;5.37;;
19084;SDS011;9675;51.538;6.728;2024-01-30T09:16:35;12.43;;;6.43;;
19084;SDS011;9675;51.538;6.728;2024-01-30T09:19:02;14.17;;;5.97;;
19084;SDS011;9675;51.538;6.728;2024-01-30T09:21:30;7.77;;;4.97;;
19084;SDS011;9675;51.538;6.728;2024-01-30T09:24:01;11.73;;;5.60;;
19084;SDS011;9675;51.538;6.728;2024-01-30T09:26:30;10.20;;;5.13;;
19084;SDS011;9675;51.538;6.728;2024-01-30T09:28:57;12.90;;;5.77;;
19084;SDS011;9675;51.538;6.728;2024-01-30T09:31:24;14.00;;;5.63;;
19084;SDS011;9675;51.538;6.728;2024-01-30T09:33:52;12.00;;;5.73;;
19084;SDS011;9675;51.538;6.728;2024-01-30T09:36:20;14.53;;;5.93;;
19084;SDS011;9675;51.538;6.728;2024-01-30T09:38:47;12.47;;;5.60;;
19084;SDS011;9675;51.538;6.728;2024-01-30T09:41:14;11.37;;;5.90;;
19084;SDS011;9675;51.538;6.728;2024-01-30T09:43:41;11.13;;;4.43;;
19084;SDS011;9675;51.538;6.728;2024-01-30T09:46:14;13.33;;;6.07;;
19084;SDS011;9675;51.538;6.728;2024-01-30T09:48:44;13.63;;;5.70;;
19084;SDS011;9675;51.538;6.728;2024-01-30T09:51:15;13.47;;;5.83;;
19084;SDS011;9675;51.538;6.728;2024-01-30T09:53:43;16.90;;;6.27;;
19084;SDS011;9675;51.538;6.728;2024-01-30T09:56:12;17.43;;;5.87;;
19084;SDS011;9675;51.538;6.728;2024-01-30T09:58:40;11.73;;;5.93;;
19084;SDS011;9675;51.538;6.728;2024-01-30T10:01:07;17.13;;;6.57;;
19084;SDS011;9675;51.538;6.728;2024-01-30T10:03:34;16.30;;;6.83;;
19084;SDS011;9675;51.538;6.728;2024-01-30T10:06:01;16.00;;;5.27;;
19084;SDS011;9675;51.538;6.728;2024-01-30T10:08:29;13.13;;;6.30;;
19084;SDS011;9675;51.538;6.728;2024-01-30T10:10:57;16.00;;;6.07;;
19084;SDS011;9675;51.538;6.728;2024-01-30T10:13:24;11.13;;;5.50;;
19084;SDS011;9675;51.538;6.728;2024-01-30T10:15:52;12.47;;;5.50;;
19084;SDS011;9675;51.538;6.728;2024-01-30T10:18:20;12.87;;;6.20;;
19084;SDS011;9675;51.538;6.728;2024-01-30T10:20:48;15.37;;;5.87;;
19084;SDS011;9675;51.538;6.728;2024-01-30T10:23:16;13.10;;;6.20;;
19084;SDS011;9675;51.538;6.728;2024-01-30T10:25:45;13.63;;;6.30;;
19084;SDS011;9675;51.538;6.728;2024-01-30T10:28:12;12.53;;;5.07;;
19084;SDS011;9675;51.538;6.728;2024-01-30T10:30:40;16.53;;;6.70;;
19084;SDS011;9675;51.538;6.728;2024-01-30T10:33:07;14.80;;;5.80;;
19084;SDS011;9675;51.538;6.728;2024-01-30T10:35:34;12.67;;;5.57;;
19084;SDS011;9675;51.538;6.728;2024-01-30T10:38:01;8.67;;;5.17;;
19084;SDS011;9675;51.538;6.728;2024-01-30T10:40:32;13.93;;;6.40;;
19084;SDS011;9675;51.538;6.728;2024-01-30T10:43:05;11.30;;;6.17;;
19084;SDS011;9675;51.538;6.728;2024-01-30T10:45:37;10.60;;;5.67;;
19084;SDS011;9675;51.538;6.728;2024-01-30T10:48:10;9.60;;;4.93;;
19084;SDS011;9675;51.538;6.728;2024-01-30T10:50:39;13.43;;;6.10;;
19084;SDS011;9675;51.538;6.728;2024-01-30T10:53:08;11.67;;;5.63;;
19084;SDS011;9675;51.538;6.728;2024-01-30T10:55:36;11.17;;;5.70;;
19084;SDS011;9675;51.538;6.728;2024-01-30T10:58:07;11.07;;;6.50;;
19084;SDS011;9675;51.538;6.728;2024-01-30T11:00:36;15.17;;;6.73;;
19084;SDS011;9675;51.538;6.728;2024-01-30T11:03:04;11.53;;;5.33;;
19084;SDS011;9675;51.538;6.728;2024-01-30T11:05:33;17.60;;;7.40;;
19084;SDS011;9675;51.538;6.728;2024-01-30T11:08:09;13.40;;;6.43;;
19084;SDS011;9675;51.538;6.728;2024-01-30T11:10:44;10.43;;;5.43;;
19084;SDS011;9675;51.538;6.728;2024-01-30T11:13:15;10.37;;;5.07;;
19084;SDS011;9675;51.538;6.728;2024-01-30T11:15:47;11.07;;;5.70;;
19084;SDS011;9675;51.538;6.728;2024-01-30T11:18:22;12.33;;;5.90;;
19084;SDS011;9675;51.538;6.728;2024-01-30T11:20:50;10.87;;;5.17;;
19084;SDS011;9675;51.538;6.728;2024-01-30T11:23:17;15.23;;;6.40;;
19084;SDS011;9675;51.538;6.728;2024-01-30T11:25:44;9.90;;;5.00;;
19084;SDS011;9675;51.538;6.728;2024-01-30T11:28:16;11.60;;;5.40;;
19084;SDS011;9675;51.538;6.728;2024-01-30T11:30:43;7.60;;;4.90;;
19084;SDS011;9675;51.538;6.728;2024-01-30T11:33:12;9.57;;;5.33;;
19084;SDS011;9675;51.538;6.728;2024-01-30T11:35:41;9.70;;;5.50;;
19084;SDS011;9675;51.538;6.728;2024-01-30T11:38:10;9.57;;;4.60;;
19084;SDS011;9675;51.538;6.728;2024-01-30T11:40:40;9.07;;;4.90;;
19084;SDS011;9675;51.538;6.728;2024-01-30T11:43:08;18.17;;;7.90;;
19084;SDS011;9675;51.538;6.728;2024-01-30T11:45:37;14.10;;;5.50;;
19084;SDS011;9675;51.538;6.728;2024-01-30T11:48:06;12.57;;;4.80;;
19084;SDS011;9675;51.538;6.728;2024-01-30T11:50:35;12.00;;;5.40;;
19084;SDS011;9675;51.538;6.728;2024-01-30T11:53:05;9.00;;;5.03;;
19084;SDS011;9675;51.538;6.728;2024-01-30T11:55:33;9.97;;;4.87;;
19084;SDS011;9675;51.538;6.728;2024-01-30T11:58:01;9.87;;;4.53;;
19084;SDS011;9675;51.538;6.728;2024-01-30T12:00:29;7.67;;;4.80;;
19084;SDS011;9675;51.538;6.728;2024-01-30T12:02:59;16.97;;;5.20;;
19084;SDS011;9675;51.538;6.728;2024-01-30T12:05:27;11.83;;;5.33;;
19084;SDS011;9675;51.538;6.728;2024-01-30T12:07:54;13.67;;;5.53;;
19084;SDS011;9675;51.538;6.728;2024-01-30T12:10:23;17.23;;;6.07;;
19084;SDS011;9675;51.538;6.728;2024-01-30T12:12:52;7.57;;;4.83;;
19084;SDS011;9675;51.538;6.728;2024-01-30T12:15:21;12.90;;;5.47;;
19084;SDS011;9675;51.538;6.728;2024-01-30T12:17:49;14.70;;;5.37;;
19084;SDS011;9675;51.538;6.728;2024-01-30T12:20:18;11.33;;;5.20;;
19084;SDS011;9675;51.538;6.728;2024-01-30T12:22:46;10.60;;;4.30;;
19084;SDS011;9675;51.538;6.728;2024-01-30T12:25:15;12.83;;;5.33;;
19084;SDS011;9675;51.538;6.728;2024-01-30T12:27:44;9.57;;;4.30;;
19084;SDS011;9675;51.538;6.728;2024-01-30T12:30:15;7.37;;;4.40;;
19084;SDS011;9675;51.538;6.728;2024-01-30T12:32:44;11.47;;;4.63;;
19084;SDS011;9675;51.538;6.728;2024-01-30T12:35:13;10.93;;;5.20;;
19084;SDS011;9675;51.538;6.728;2024-01-30T12:37:43;11.77;;;5.03;;
19084;SDS011;9675;51.538;6.728;2024-01-30T12:40:13;8.43;;;4.77;;
19084;SDS011;9675;51.538;6.728;2024-01-30T12:42:41;9.50;;;4.83;;
19084;SDS011;9675;51.538;6.728;2024-01-30T12:45:11;10.87;;;4.40;;
19084;SDS011;9675;51.538;6.728;2024-01-30T12:47:40;9.83;;;4.47;;
19084;SDS011;9675;51.538;6.728;2024-01-30T12:50:08;10.50;;;4.97;;
19084;SDS011;9675;51.538;6.728;2024-01-30T12:52:35;11.27;;;4.23;;
19084;SDS011;9675;51.538;6.728;2024-01-30T12:55:04;7.07;;;4.77;;
19084;SDS011;9675;51.538;6.728;2024-01-30T12:57:31;10.00;;;4.43;;
19084;SDS011;9675;51.538;6.728;2024-01-30T12:59:59;9.70;;;4.57;;
19084;SDS011;9675;51.538;6.728;2024-01-30T13:02:26;13.23;;;4.97;;
19084;SDS011;9675;51.538;6.728;2024-01-30T13:04:59;11.57;;;4.60;;
19084;SDS011;9675;51.538;6.728;2024-01-30T13:07:27;10.40;;;5.87;;
19084;SDS011;9675;51.538;6.728;2024-01-30T13:09:54;9.13;;;4.20;;
19084;SDS011;9675;51.538;6.728;2024-01-30T13:12:22;13.70;;;5.47;;
19084;SDS011;9675;51.538;6.728;2024-01-30T13:14:50;11.87;;;4.97;;
19084;SDS011;9675;51.538;6.728;2024-01-30T13:17:17;11.50;;;4.87;;
19084;SDS011;9675;51.538;6.728;2024-01-30T13:19:44;10.30;;;4.70;;
19084;SDS011;9675;51.538;6.728;2024-01-30T13:22:11;12.33;;;5.27;;
19084;SDS011;9675;51.538;6.728;2024-01-30T13:24:38;15.73;;;5.20;;
19084;SDS011;9675;51.538;6.728;2024-01-30T13:27:05;12.57;;;5.13;;
19084;SDS011;9675;51.538;6.728;2024-01-30T13:29:35;9.33;;;5.07;;
19084;SDS011;9675;51.538;6.728;2024-01-30T13:32:02;11.20;;;5.17;;
19084;SDS011;9675;51.538;6.728;2024-01-30T13:34:30;12.47;;;5.07;;
19084;SDS011;9675;51.538;6.728;2024-01-30T13:36:57;6.83;;;3.90;;
19084;SDS011;9675;51.538;6.728;2024-01-30T13:39:24;9.13;;;4.60;;
19084;SDS011;9675;51.538;6.728;2024-01-30T13:41:51;7.63;;;4.07;;
19084;SDS011;9675;51.538;6.728;2024-01-30T13:44:18;9.73;;;3.70;;
19084;SDS011;9675;51.538;6.728;2024-01-30T13:46:47;9.53;;;4.97;;
19084;SDS011;9675;51.538;6.728;2024-01-30T13:49:14;8.80;;;4.00;;
19084;SDS011;9675;51.538;6.728;2024-01-30T13:51:41;8.07;;;4.00;;
19084;SDS011;9675;51.538;6.728;2024-01-30T13:54:08;10.17;;;3.90;;
19084;SDS011;9675;51.538;6.728;2024-01-30T13:56:35;7.27;;;4.03;;
19084;SDS011;9675;51.538;6.728;2024-01-30T13:59:02;7.50;;;4.10;;
19084;SDS011;9675;51.538;6.728;2024-01-30T14:01:30;9.37;;;4.20;;
19084;SDS011;9675;51.538;6.728;2024-01-30T14:03:59;8.80;;;4.17;;
19084;SDS011;9675;51.538;6.728;2024-01-30T14:06:26;9.00;;;4.20;;
19084;SDS011;9675;51.538;6.728;2024-01-30T14:08:53;8.47;;;3.60;;
19084;SDS011;9675;51.538;6.728;2024-01-30T14:11:21;9.87;;;4.33;;
19084;SDS011;9675;51.538;6.728;2024-01-30T14:13:48;9.53;;;3.50;;
19084;SDS011;9675;51.538;6.728;2024-01-30T14:16:15;6.97;;;3.77;;
19084;SDS011;9675;51.538;6.728;2024-01-30T14:18:42;7.10;;;3.03;;
19084;SDS011;9675;51.538;6.728;2024-01-30T14:21:10;6.97;;;3.50;;
19084;SDS011;9675;51.538;6.728;2024-01-30T14:23:37;9.00;;;2.87;;
19084;SDS011;9675;51.538;6.728;2024-01-30T14:26:05;4.73;;;2.93;;
19084;SDS011;9675;51.538;6.728;2024-01-30T14:28:32;4.20;;;1.43;;
19084;SDS011;9675;51.538;6.728;2024-01-30T14:30:59;5.33;;;2.63;;
19084;SDS011;9675;51.538;6.728;2024-01-30T14:33:26;4.70;;;2.53;;
19084;SDS011;9675;51.538;6.728;2024-01-30T14:35:53;4.83;;;2.40;;
19084;SDS011;9675;51.538;6.728;2024-01-30T14:38:22;6.43;;;2.33;;
19084;SDS011;9675;51.538;6.728;2024-01-30T14:40:50;6.20;;;3.57;;
19084;SDS011;9675;51.538;6.728;2024-01-30T14:43:17;6.57;;;2.53;;
19084;SDS011;9675;51.538;6.728;2024-01-30T14:45:44;4.73;;;1.90;;
19084;SDS011;9675;51.538;6.728;2024-01-30T14:48:14;3.97;;;2.13;;
19084;SDS011;9675;51.538;6.728;2024-01-30T14:50:41;3.63;;;1.73;;
19084;SDS011;9675;51.538;6.728;2024-01-30T14:53:08;3.27;;;1.70;;
19084;SDS011;9675;51.538;6.728;2024-01-30T14:55:36;13.03;;;2.33;;